Time;durP1;ratioP1;P1;durP2;ratioP2;P2;SDS_P1;SDS_P2;PMS_P1;PMS_P2;Temp;Humidity;BMP_temperature;BMP_pressure;BME280_temperature;BME280_humidity;BME280_pressure;Samples;Min_cycle;Max_cycle;Signal;HPM_P1;HPM_P2
2022/04/16 00:00:29;;;;;;;24.13;16.85;;;;;;;;;;5011919;28;20446;-75
2022/04/16 00:02:55;;;;;;;23.67;17.40;;;;;;;;;;5011838;28;21243;-75
2022/04/16 00:05:23;;;;;;;21.15;16.80;;;;;;;;;;4931871;28;20453;-76
2022/04/16 00:08:06;;;;;;;23.48;17.50;;;;;;;;;;5016517;28;20426;-75
2022/04/16 00:10:37;;;;;;;25.98;17.90;;;8.00;99.90;;;;;;5014218;28;20441;-74
2022/04/16 00:13:03;;;;;;;22.83;16.85;;;;;;;;;;5000776;28;20428;-75
2022/04/16 00:15:29;;;;;;;23.93;17.87;;;;;;;;;;4999150;28;21019;-76
2022/04/16 00:17:56;;;;;;;23.23;17.83;;;;;;;;;;5019745;28;20925;-75
2022/04/16 00:20:25;;;;;;;24.20;18.08;;;;;;;;;;5013498;28;20492;-75
2022/04/16 00:22:51;;;;;;;26.25;19.25;;;;;;;;;;4918890;28;20473;-75
2022/04/16 00:25:17;;;;;;;25.55;18.90;;;;;;;;;;5016467;28;20992;-75
2022/04/16 00:27:44;;;;;;;27.67;19.42;;;;;;;;;;5033708;28;20456;-75
2022/04/16 00:30:10;;;;;;;27.15;19.42;;;;;;;;;;4999867;28;20461;-75
2022/04/16 00:32:36;;;;;;;30.23;20.65;;;;;;;;;;5016582;28;20438;-75
2022/04/16 00:35:03;;;;;;;27.85;19.75;;;8.00;99.90;;;;;;4999949;28;20472;-75
2022/04/16 00:37:29;;;;;;;28.77;20.60;;;;;;;;;;5002373;28;20429;-75
2022/04/16 00:39:55;;;;;;;28.50;19.90;;;;;;;;;;4999365;28;20440;-75
2022/04/16 00:42:21;;;;;;;27.45;20.42;;;;;;;;;;4988772;28;20429;-75
2022/04/16 00:44:47;;;;;;;27.42;20.25;;;;;;;;;;5013803;28;20434;-75
2022/04/16 00:47:13;;;;;;;29.75;20.42;;;;;;;;;;5016695;28;20902;-75
2022/04/16 00:49:39;;;;;;;29.80;20.75;;;;;;;;;;5014624;28;20520;-75
2022/04/16 00:52:08;;;;;;;28.30;21.13;;;;;;;;;;5011722;28;20970;-75
2022/04/16 00:54:34;;;;;;;30.60;21.60;;;;;;;;;;4996336;28;20462;-75
2022/04/16 00:57:00;;;;;;;32.10;21.48;;;;;;;;;;4961711;28;20444;-75
2022/04/16 00:59:26;;;;;;;31.35;20.92;;;;;;;;;;5013933;28;20933;-74
2022/04/16 01:01:53;;;;;;;28.55;21.02;;;;;;;;;;4998826;28;20433;-76
2022/04/16 01:04:19;;;;;;;31.95;21.30;;;;;;;;;;5017743;28;20446;-75
2022/04/16 01:06:48;;;;;;;31.10;21.73;;;;;;;;;;5017702;28;20507;-76
2022/04/16 01:09:15;;;;;;;30.02;21.35;;;;;;;;;;5014687;28;20425;-76
2022/04/16 01:11:43;;;;;;;28.63;22.27;;;;;;;;;;4997783;28;20429;-75
2022/04/16 01:14:10;;;;;;;32.35;22.17;;;;;;;;;;5006604;28;20516;-82
2022/04/16 01:16:36;;;;;;;30.88;21.38;;;;;;;;;;5011112;28;20900;-81
2022/04/16 01:19:03;;;;;;;31.17;21.73;;;;;;;;;;5000152;28;20467;-82
2022/04/16 01:21:29;;;;;;;32.17;22.95;;;;;;;;;;5015205;28;21634;-82
2022/04/16 01:23:55;;;;;;;35.42;23.25;;;;;;;;;;5012855;28;20439;-82
2022/04/16 01:26:22;;;;;;;31.83;23.00;;;;;;;;;;5016570;28;20430;-82
2022/04/16 01:28:48;;;;;;;32.85;22.60;;;;;;;;;;5014144;28;20430;-82
2022/04/16 01:31:14;;;;;;;33.17;23.07;;;;;;;;;;5014535;28;20427;-82
2022/04/16 01:33:40;;;;;;;30.25;21.40;;;;;;;;;;5016784;28;20438;-81
2022/04/16 01:36:06;;;;;;;32.88;22.70;;;;;;;;;;4998792;28;20940;-81
2022/04/16 01:38:32;;;;;;;31.45;22.60;;;;;;;;;;5011163;28;20422;-81
2022/04/16 01:40:59;;;;;;;32.55;22.83;;;;;;;;;;4996713;28;20475;-81
2022/04/16 01:43:25;;;;;;;32.70;23.20;;;7.10;99.90;;;;;;5015761;28;20465;-82
2022/04/16 01:45:51;;;;;;;34.87;24.20;;;;;;;;;;5011985;28;20941;-81
2022/04/16 01:48:19;;;;;;;36.13;23.90;;;;;;;;;;5016654;28;20433;-81
2022/04/16 01:50:46;;;;;;;31.73;23.60;;;;;;;;;;5002199;28;20437;-82
2022/04/16 01:53:12;;;;;;;33.83;23.50;;;;;;;;;;4994111;28;20435;-81
2022/04/16 01:55:38;;;;;;;33.05;23.40;;;;;;;;;;4981228;28;20430;-81
2022/04/16 01:58:06;;;;;;;32.58;22.50;;;;;;;;;;5001166;28;20426;-81
2022/04/16 02:00:33;;;;;;;34.53;23.92;;;;;;;;;;5002205;28;20468;-81
2022/04/16 02:02:59;;;;;;;37.05;23.90;;;;;;;;;;5014419;28;20457;-80
2022/04/16 02:05:26;;;;;;;32.20;23.25;;;;;;;;;;4998843;28;20438;-80
2022/04/16 02:07:52;;;;;;;33.53;23.33;;;;;;;;;;4969046;28;20473;-81
2022/04/16 02:10:18;;;;;;;34.22;23.98;;;;;;;;;;5000769;28;20424;-81
2022/04/16 02:12:45;;;;;;;34.88;23.52;;;;;;;;;;5013387;28;20433;-81
2022/04/16 02:15:11;;;;;;;34.80;23.90;;;;;;;;;;4998800;28;20483;-81
2022/04/16 02:17:38;;;;;;;33.47;23.50;;;;;;;;;;5007603;28;20521;-81
2022/04/16 02:20:07;;;;;;;33.33;22.67;;;;;;;;;;4930948;28;20454;-81
2022/04/16 02:22:40;;;;;;;36.10;23.80;;;;;;;;;;4949135;28;20422;-81
2022/04/16 02:25:08;;;;;;;36.13;23.30;;;;;;;;;;4941931;28;20937;-81
2022/04/16 02:27:35;;;;;;;33.90;24.33;;;;;;;;;;5013935;28;20457;-81
2022/04/16 02:30:03;;;;;;;37.53;25.02;;;;;;;;;;5014122;28;20530;-81
2022/04/16 02:32:29;;;;;;;36.88;24.83;;;;;;;;;;5011296;28;20426;-81
2022/04/16 02:34:56;;;;;;;39.83;25.73;;;;;;;;;;5016710;28;20441;-81
2022/04/16 02:37:22;;;;;;;37.17;25.77;;;;;;;;;;5000021;28;20429;-81
2022/04/16 02:39:48;;;;;;;36.58;24.65;;;;;;;;;;5014212;28;20438;-81
2022/04/16 02:42:18;;;;;;;38.97;25.83;;;;;;;;;;5009520;28;20430;-81
2022/04/16 02:47:30;;;;;;;40.50;27.23;;;;;;;;;;5006552;28;20759;-81
2022/04/16 02:49:56;;;;;;;46.10;28.55;;;;;;;;;;5012004;28;20426;-81
2022/04/16 02:52:22;;;;;;;44.33;28.88;;;;;;;;;;5014185;28;20426;-81
2022/04/16 02:54:48;;;;;;;40.97;27.42;;;;;;;;;;5008511;28;20525;-81
2022/04/16 02:57:15;;;;;;;39.17;26.73;;;;;;;;;;5013630;28;20548;-80
2022/04/16 02:59:41;;;;;;;40.72;27.80;;;;;;;;;;4985253;28;20456;-80
2022/04/16 03:02:07;;;;;;;40.13;27.97;;;;;;;;;;4947670;28;20430;-80
2022/04/16 03:04:33;;;;;;;41.53;28.05;;;;;;;;;;5006349;28;20430;-81
2022/04/16 03:06:59;;;;;;;42.80;28.50;;;;;;;;;;4980006;28;20996;-80
2022/04/16 03:09:25;;;;;;;41.42;28.58;;;;;;;;;;5012051;28;20472;-80
2022/04/16 03:11:51;;;;;;;41.90;28.08;;;;;;;;;;5004751;28;20770;-80
2022/04/16 03:19:46;;;;;;;46.97;30.52;;;;;;;;;;5010197;28;20426;-82
2022/04/16 03:22:13;;;;;;;44.75;28.92;;;;;;;;;;5007572;28;20444;-81
2022/04/16 03:24:39;;;;;;;47.20;29.08;;;;;;;;;;4994192;28;20435;-81
2022/04/16 03:27:06;;;;;;;44.20;28.38;;;;;;;;;;4998330;28;20446;-80
2022/04/16 03:29:33;;;;;;;46.83;29.40;;;;;;;;;;5009953;28;20449;-80
2022/04/16 03:31:59;;;;;;;44.30;28.33;;;;;;;;;;5014367;28;20821;-81
2022/04/16 03:34:25;;;;;;;47.50;31.20;;;;;;;;;;4984682;28;20488;-81
2022/04/16 03:36:51;;;;;;;46.05;30.30;;;;;;;;;;5012884;28;20425;-81
2022/04/16 03:39:20;;;;;;;46.47;30.02;;;;;;;;;;4996693;28;20426;-81
2022/04/16 03:41:47;;;;;;;47.88;31.02;;;;;;;;;;4976908;28;20520;-81
2022/04/16 03:44:13;;;;;;;47.95;30.88;;;;;;;;;;5013937;28;20475;-81
2022/04/16 03:46:39;;;;;;;48.77;29.90;;;;;;;;;;5013593;28;20457;-81
2022/04/16 03:49:05;;;;;;;48.45;31.10;;;;;;;;;;5010672;28;20430;-81
2022/04/16 03:51:31;;;;;;;51.50;31.15;;;;;;;;;;5011784;28;20426;-81
2022/04/16 03:59:59;;;;;;;52.70;32.97;;;;;;;;;;5011658;28;20778;-81
2022/04/16 04:02:12;;;;;;;51.33;33.05;;;;;;;;;;5001491;28;20437;-81
2022/04/16 04:04:38;;;;;;;61.90;34.63;;;;;;;;;;5010366;28;20926;-81
2022/04/16 04:07:05;;;;;;;51.07;32.27;;;;;;;;;;4998948;28;20456;-81
2022/04/16 04:09:32;;;;;;;51.50;33.50;;;;;;;;;;5009017;28;20430;-81
2022/04/16 04:11:58;;;;;;;51.60;33.33;;;;;;;;;;5012912;28;20602;-82
2022/04/16 04:14:24;;;;;;;74.13;35.03;;;;;;;;;;5009447;28;20422;-81
2022/04/16 04:16:50;;;;;;;49.28;32.05;;;;;;;;;;4947406;28;20437;-81
2022/04/16 04:19:16;;;;;;;54.00;34.50;;;;;;;;;;4941811;28;20434;-81
2022/04/16 04:21:42;;;;;;;48.45;32.97;;;;;;;;;;4992565;28;20426;-81
2022/04/16 04:24:08;;;;;;;52.40;33.65;;;;;;;;;;4996143;28;20433;-81
2022/04/16 04:26:35;;;;;;;50.42;33.70;;;;;;;;;;4946835;28;20940;-81
2022/04/16 04:29:01;;;;;;;48.78;32.75;;;;;;;;;;5011110;28;20426;-81
2022/04/16 04:31:27;;;;;;;52.50;33.42;;;;;;;;;;5011759;28;20913;-81
2022/04/16 04:33:54;;;;;;;57.70;34.63;;;;;;;;;;4995115;28;20483;-81
2022/04/16 04:36:20;;;;;;;66.53;37.67;;;;;;;;;;4996696;28;20520;-81
2022/04/16 04:38:46;;;;;;;49.47;33.33;;;;;;;;;;4914917;28;20438;-81
2022/04/16 04:41:12;;;;;;;46.30;32.25;;;;;;;;;;5010326;28;20436;-81
2022/04/16 04:43:38;;;;;;;47.42;32.00;;;;;;;;;;4996851;28;20956;-81
2022/04/16 04:46:04;;;;;;;52.17;35.60;;;;;;;;;;5027270;28;20422;-81
2022/04/16 04:48:30;;;;;;;47.70;33.35;;;;;;;;;;4994487;28;20423;-81
2022/04/16 04:50:56;;;;;;;49.15;33.45;;;;;;;;;;5009331;28;20749;-81
2022/04/16 04:53:22;;;;;;;46.70;33.58;;;;;;;;;;4982916;28;20433;-80
2022/04/16 04:55:48;;;;;;;49.03;34.45;;;;;;;;;;4931222;28;20952;-81
2022/04/16 04:58:14;;;;;;;46.38;33.70;;;;;;;;;;5016448;28;20561;-80
2022/04/16 05:00:40;;;;;;;45.97;32.33;;;;;;;;;;5005152;28;20445;-80
2022/04/16 05:03:06;;;;;;;49.90;34.33;;;;;;;;;;4945823;28;20514;-80
2022/04/16 05:05:32;;;;;;;50.97;34.15;;;;;;;;;;5014225;28;20458;-80
2022/04/16 05:07:58;;;;;;;45.47;33.13;;;;;;;;;;4999227;28;20426;-82
2022/04/16 05:10:25;;;;;;;46.38;32.78;;;;;;;;;;4984153;28;20524;-83
2022/04/16 05:12:51;;;;;;;48.92;34.17;;;;;;;;;;5016824;28;20501;-80
2022/04/16 05:15:17;;;;;;;45.22;33.42;;;;;;;;;;4999022;28;20488;-81
2022/04/16 05:17:43;;;;;;;45.15;33.20;;;;;;;;;;4999104;28;20521;-80
2022/04/16 05:20:09;;;;;;;49.55;34.67;;;;;;;;;;5010443;28;20425;-80
2022/04/16 05:22:36;;;;;;;44.97;32.20;;;;;;;;;;4986918;28;20990;-81
2022/04/16 05:25:02;;;;;;;46.65;32.33;;;;;;;;;;5015386;28;20961;-80
2022/04/16 05:27:30;;;;;;;42.45;31.65;;;;;;;;;;5017128;28;20509;-80
2022/04/16 05:30:02;;;;;;;39.55;30.60;;;;;;;;;;5012704;28;20430;-81
2022/04/16 05:32:34;;;;;;;41.78;30.02;;;;;;;;;;5004027;28;20434;-80
2022/04/16 05:35:00;;;;;;;37.00;27.60;;;;;;;;;;5012906;28;20430;-81
2022/04/16 05:37:26;;;;;;;35.83;26.87;;;;;;;;;;5000719;28;20472;-80
2022/04/16 05:39:52;;;;;;;32.97;23.85;;;;;;;;;;4994796;28;20523;-80
2022/04/16 05:42:19;;;;;;;34.75;24.58;;;;;;;;;;5014394;28;20517;-78
2022/04/16 05:44:45;;;;;;;33.73;25.40;;;;;;;;;;5014075;28;20520;-78
2022/04/16 05:47:11;;;;;;;32.47;23.33;;;;;;;;;;5007178;28;20414;-79
2022/04/16 05:49:37;;;;;;;31.17;23.38;;;;;;;;;;5012307;28;20437;-79
2022/04/16 05:52:03;;;;;;;29.67;21.67;;;;;;;;;;5012239;28;20461;-78
2022/04/16 05:54:30;;;;;;;31.48;23.38;;;;;;;;;;5014043;28;20436;-78
2022/04/16 05:56:56;;;;;;;26.48;21.10;;;;;;;;;;5028224;28;20431;-79
2022/04/16 05:59:22;;;;;;;30.33;20.60;;;;;;;;;;5009517;28;20443;-78
2022/04/16 06:01:49;;;;;;;27.83;19.83;;;;;;;;;;5029626;28;20430;-79
2022/04/16 06:04:15;;;;;;;26.65;17.80;;;;;;;;;;5027832;28;20791;-80
2022/04/16 06:06:41;;;;;;;24.35;17.48;;;;;;;;;;5012652;28;20819;-79
2022/04/16 06:09:08;;;;;;;24.52;17.30;;;;;;;;;;4995323;28;20423;-79
2022/04/16 06:11:34;;;;;;;23.58;16.25;;;;;;;;;;5010044;28;20485;-79
2022/04/16 06:14:00;;;;;;;21.25;15.80;;;;;;;;;;5029457;28;20426;-80
2022/04/16 06:16:26;;;;;;;22.67;16.75;;;;;;;;;;5011511;28;20425;-81
2022/04/16 06:18:52;;;;;;;22.67;16.27;;;;;;;;;;5008451;28;20957;-78
2022/04/16 06:21:18;;;;;;;22.60;15.95;;;;;;;;;;5010365;28;20465;-78
2022/04/16 06:23:44;;;;;;;22.65;16.88;;;;;;;;;;5028733;28;20607;-79
2022/04/16 06:26:10;;;;;;;25.08;16.88;;;;;;;;;;5009714;28;20430;-79
2022/04/16 06:28:36;;;;;;;24.33;16.88;;;;;;;;;;5026182;28;20423;-80
2022/04/16 06:31:02;;;;;;;24.95;16.73;;;;;;;;;;5028592;28;20748;-80
2022/04/16 06:33:29;;;;;;;21.73;16.58;;;;;;;;;;5026529;28;20821;-81
2022/04/16 06:35:55;;;;;;;20.67;15.15;;;;;;;;;;5027665;28;20422;-80
2022/04/16 06:38:21;;;;;;;23.17;15.85;;;;;;;;;;5026834;28;20446;-80
2022/04/16 06:40:47;;;;;;;22.00;15.57;;;;;;;;;;5011126;28;20512;-80
2022/04/16 06:43:13;;;;;;;21.65;15.25;;;;;;;;;;5011759;28;20422;-80
2022/04/16 06:45:39;;;;;;;22.83;16.77;;;;;;;;;;5026308;28;20427;-80
2022/04/16 06:48:06;;;;;;;20.67;15.20;;;;;;;;;;5026022;28;20474;-80
2022/04/16 06:50:32;;;;;;;21.70;15.55;;;;;;;;;;5026378;28;20415;-80
2022/04/16 06:52:58;;;;;;;19.63;15.13;;;;;;;;;;5011198;28;20506;-80
2022/04/16 06:55:24;;;;;;;19.98;14.13;;;;;;;;;;5027396;28;20431;-80
2022/04/16 06:57:50;;;;;;;20.00;13.88;;;;;;;;;;5029083;28;20903;-79
2022/04/16 07:00:16;;;;;;;19.80;13.70;;;;;;;;;;5026290;28;20513;-79
2022/04/16 07:02:42;;;;;;;18.85;13.68;;;;;;;;;;5024390;28;20510;-80
2022/04/16 07:05:09;;;;;;;19.17;13.33;;;;;;;;;;5010740;28;20438;-80
2022/04/16 07:07:35;;;;;;;18.05;13.38;;;;;;;;;;5012023;28;21199;-80
2022/04/16 07:10:01;;;;;;;18.75;13.48;;;;;;;;;;5025342;28;20446;-80
2022/04/16 07:12:27;;;;;;;17.83;13.13;;;;;;;;;;5028467;28;20419;-80
2022/04/16 07:14:53;;;;;;;21.10;15.23;;;;;;;;;;5028084;28;20431;-80
2022/04/16 07:17:19;;;;;;;19.48;12.88;;;;;;;;;;5026493;28;20440;-80
2022/04/16 07:19:47;;;;;;;24.63;12.70;;;;;;;;;;5027234;28;20532;-81
2022/04/16 07:22:13;;;;;;;17.20;12.33;;;;;;;;;;5011230;28;20434;-80
2022/04/16 07:24:42;;;;;;;20.00;13.10;;;;;;;;;;5017106;28;20782;-81
2022/04/16 07:27:08;;;;;;;17.60;13.07;;;;;;;;;;5026161;28;20812;-80
2022/04/16 07:29:34;;;;;;;19.55;13.50;;;;;;;;;;5010429;28;20906;-80
2022/04/16 07:32:00;;;;;;;19.70;13.60;;;;;;;;;;5016630;28;20974;-80
2022/04/16 07:34:27;;;;;;;21.63;13.43;;;;;;;;;;5026127;28;20826;-81
2022/04/16 07:36:53;;;;;;;18.10;12.50;;;;;;;;;;5025265;28;21436;-81
2022/04/16 07:39:19;;;;;;;21.27;12.60;;;;;;;;;;5027167;28;20437;-80
2022/04/16 07:41:45;;;;;;;18.88;12.75;;;;;;;;;;5025391;28;20431;-81
2022/04/16 07:44:11;;;;;;;17.80;12.60;;;;;;;;;;5010070;28;20534;-81
2022/04/16 07:46:37;;;;;;;17.45;12.10;;;;;;;;;;5024682;28;20927;-80
2022/04/16 07:49:04;;;;;;;17.67;12.13;;;;;;;;;;5009353;28;20492;-80
2022/04/16 07:51:30;;;;;;;16.42;10.77;;;;;;;;;;5024298;28;20422;-81
2022/04/16 07:53:57;;;;;;;15.13;10.93;;;;;;;;;;5024832;28;20795;-81
2022/04/16 07:56:24;;;;;;;15.95;10.55;;;;;;;;;;5008260;28;20438;-80
2022/04/16 07:58:50;;;;;;;16.58;10.82;;;;;;;;;;5026922;28;20431;-81
2022/04/16 08:01:17;;;;;;;15.80;9.52;;;;;;;;;;5024888;28;20418;-80
2022/04/16 08:03:43;;;;;;;13.57;10.00;;;;;;;;;;5028089;28;20426;-81
2022/04/16 08:06:09;;;;;;;14.27;9.20;;;;;;;;;;5011809;28;20423;-82
2022/04/16 08:08:35;;;;;;;13.00;9.25;;;;;;;;;;5013273;28;20506;-83
2022/04/16 08:11:01;;;;;;;12.75;9.02;;;;;;;;;;5009126;28;20445;-83
2022/04/16 08:13:27;;;;;;;12.93;9.10;;;;;;;;;;5009801;28;20419;-82
2022/04/16 08:15:54;;;;;;;13.10;8.80;;;;;;;;;;5024936;28;20590;-82
2022/04/16 08:18:20;;;;;;;13.35;9.10;;;;;;;;;;5027429;28;20911;-83
2022/04/16 08:20:46;;;;;;;11.70;8.60;;;;;;;;;;5026187;28;21008;-83
2022/04/16 08:23:13;;;;;;;12.85;8.55;;;;;;;;;;5027656;28;20430;-81
2022/04/16 08:28:06;;;;;;;9.30;6.80;;;;;;;;;;5029475;28;20434;-83
2022/04/16 08:30:32;;;;;;;10.23;6.53;;;;;;;;;;5027244;28;20431;-81
2022/04/16 08:32:59;;;;;;;14.93;6.18;;;;;;;;;;5029560;28;20427;-81
2022/04/16 08:35:25;;;;;;;10.77;6.82;;;;;;;;;;5031174;28;20477;-82
2022/04/16 08:37:52;;;;;;;8.93;5.35;;;;;;;;;;5032621;28;20423;-81
2022/04/16 08:40:18;;;;;;;8.73;5.30;;;11.20;99.90;;;;;;5028452;28;20645;-81
2022/04/16 08:42:45;;;;;;;10.55;5.95;;;;;;;;;;5029779;28;20422;-80
2022/04/16 08:45:12;;;;;;;8.37;4.80;;;;;;;;;;5026652;28;20458;-80
2022/04/16 08:47:39;;;;;;;7.90;4.72;;;;;;;;;;5027091;28;20898;-80
2022/04/16 08:50:08;;;;;;;9.85;4.68;;;11.30;99.90;;;;;;5031113;28;20514;-80
2022/04/16 08:52:36;;;;;;;8.18;4.53;;;;;;;;;;5030239;28;20415;-80
2022/04/16 08:55:04;;;;;;;7.00;4.65;;;;;;;;;;5024815;28;20457;-80
2022/04/16 08:57:30;;;;;;;7.35;4.70;;;;;;;;;;5014751;28;20434;-80
2022/04/16 08:59:57;;;;;;;11.95;6.00;;;;;;;;;;4992906;28;20454;-82
2022/04/16 09:02:24;;;;;;;13.45;8.77;;;;;;;;;;4941764;28;20465;-79
2022/04/16 09:05:08;;;;;;;7.17;4.63;;;11.70;99.90;;;;;;5013601;28;20437;-79
2022/04/16 09:07:55;;;;;;;6.72;4.53;;;11.90;99.90;;;;;;4952596;28;20434;-79
2022/04/16 09:10:22;;;;;;;6.68;4.40;;;;;;;;;;5009632;28;20463;-79
2022/04/16 09:12:52;;;;;;;7.15;4.38;;;12.20;99.90;;;;;;5006923;28;20426;-77
2022/04/16 09:15:19;;;;;;;7.25;4.28;;;;;;;;;;5011243;28;20453;-80
2022/04/16 09:17:56;;;;;;;7.20;3.40;;;;;;;;;;5008509;28;20987;-81
2022/04/16 09:20:22;;;;;;;6.43;3.85;;;12.30;99.90;;;;;;5016865;28;20478;-81
2022/04/16 09:22:49;;;;;;;6.18;3.90;;;;;;;;;;5013082;28;20541;-82
2022/04/16 09:25:16;;;;;;;7.22;4.90;;;;;;;;;;5012012;28;20995;-81
2022/04/16 09:27:46;;;;;;;7.78;5.35;;;;;;;;;;5014326;28;20460;-79
2022/04/16 09:30:33;;;;;;;8.57;5.20;;;;;;;;;;4947639;28;21045;-79
2022/04/16 09:33:00;;;;;;;8.40;5.22;;;;;;;;;;4945740;28;20426;-80
2022/04/16 09:35:38;;;;;;;6.55;4.40;;;;;;;;;;4946283;28;20483;-79
2022/04/16 09:38:07;;;;;;;6.90;3.25;;;;;;;;;;4947999;28;20505;-79
2022/04/16 09:40:34;;;;;;;6.95;3.20;;;;;;;;;;5014025;28;20543;-78
2022/04/16 09:43:01;;;;;;;4.18;2.60;;;;;;;;;;5011338;28;20520;-79
2022/04/16 09:45:27;;;;;;;6.13;2.97;;;;;;;;;;4996494;28;21025;-80
2022/04/16 09:47:53;;;;;;;5.60;3.20;;;13.30;99.90;;;;;;5003458;28;20435;-79
2022/04/16 09:50:21;;;;;;;5.13;2.72;;;;;;;;;;5016738;28;20459;-79
2022/04/16 09:52:52;;;;;;;5.07;2.72;;;;;;;;;;4996604;28;20457;-80
2022/04/16 09:55:25;;;;;;;5.53;3.00;;;13.10;99.90;;;;;;5023789;28;20437;-81
2022/04/16 09:58:04;;;;;;;9.55;2.85;;;;;;;;;;5012938;28;20437;-79
2022/04/16 10:00:32;;;;;;;6.47;2.90;;;13.30;99.90;;;;;;5002550;28;20905;-80
2022/04/16 10:02:59;;;;;;;5.35;2.95;;;;;;;;;;5013989;28;21000;-74
2022/04/16 10:05:26;;;;;;;5.15;2.88;;;;;;;;;;4991267;28;20430;-75
2022/04/16 10:07:53;;;;;;;5.03;2.80;;;;;;;;;;5003870;28;20442;-75
2022/04/16 10:10:25;;;;;;;6.47;3.17;;;;;;;;;;4931907;28;20434;-75
2022/04/16 10:13:03;;;;;;;5.35;2.90;;;13.30;99.90;;;;;;4941727;28;20418;-74
2022/04/16 10:15:59;;;;;;;7.67;3.03;;;13.60;99.90;;;;;;5016735;28;20467;-74
2022/04/16 10:18:26;;;;;;;4.90;3.03;;;;;;;;;;4981963;28;20474;-75
2022/04/16 10:21:00;;;;;;;4.55;2.88;;;13.80;99.90;;;;;;5008675;28;20663;-75
2022/04/16 10:23:30;;;;;;;4.60;2.80;;;;;;;;;;4949051;28;20433;-75
2022/04/16 10:26:04;;;;;;;4.68;2.90;;;;;;;;;;4951352;28;20429;-75
2022/04/16 10:28:41;;;;;;;6.88;3.00;;;13.80;99.90;;;;;;4950605;28;20426;-74
2022/04/16 10:31:19;;;;;;;4.57;2.70;;;;;;;;;;4943852;28;20921;-74
2022/04/16 10:33:58;;;;;;;4.65;2.40;;;13.60;99.90;;;;;;4946989;28;20429;-75
2022/04/16 10:36:26;;;;;;;4.93;2.55;;;;;;;;;;5008946;28;20793;-76
2022/04/16 10:38:52;;;;;;;4.40;2.50;;;;;;;;;;5016698;28;20747;-75
2022/04/16 10:41:21;;;;;;;4.65;2.50;;;;;;;;;;5014743;28;20440;-75
2022/04/16 10:44:09;;;;;;;4.20;2.60;;;;;;;;;;4943193;28;20445;-75
2022/04/16 10:46:45;;;;;;;3.75;2.40;;;;;;;;;;5013481;28;20429;-74
2022/04/16 10:49:12;;;;;;;3.70;2.53;;;;;;;;;;4951560;28;20464;-75
2022/04/16 10:51:38;;;;;;;4.23;2.33;;;14.00;99.90;;;;;;5012088;28;20441;-74
2022/04/16 10:54:08;;;;;;;5.50;2.40;;;;;;;;;;5009228;28;20437;-75
2022/04/16 10:56:39;;;;;;;3.22;1.98;;;13.90;99.90;;;;;;4990633;28;20533;-74
2022/04/16 10:59:05;;;;;;;4.63;2.10;;;;;;;;;;5019985;28;20432;-74
2022/04/16 11:01:31;;;;;;;3.72;1.90;;;13.70;99.90;;;;;;5005764;28;20569;-73
2022/04/16 11:03:58;;;;;;;4.72;1.73;;;;;;;;;;4944353;28;20529;-72
2022/04/16 11:06:34;;;;;;;6.57;1.92;;;13.90;98.20;;;;;;4948474;28;20434;-75
2022/04/16 11:09:00;;;;;;;7.00;1.60;;;;;;;;;;4946425;28;20921;-74
2022/04/16 11:11:26;;;;;;;3.53;1.58;;;;;;;;;;5005359;28;20945;-75
2022/04/16 11:13:52;;;;;;;2.33;1.40;;;;;;;;;;4940083;28;20430;-74
2022/04/16 11:16:22;;;;;;;2.40;1.50;;;;;;;;;;4942859;28;20517;-74
2022/04/16 11:18:49;;;;;;;3.25;1.50;;;;;;;;;;4947531;28;22339;-74
2022/04/16 11:21:18;;;;;;;3.55;1.38;;;14.40;95.80;;;;;;4947242;28;20428;-74
2022/04/16 11:23:48;;;;;;;3.28;1.20;;;;;;;;;;5012095;28;20422;-76
2022/04/16 11:34:31;;;;;;;1.90;1.00;;;;;;;;;;4956201;28;20453;-75
2022/04/16 11:36:58;;;;;;;2.15;1.05;;;;;;;;;;4952921;28;20422;-75
2022/04/16 11:39:29;;;;;;;2.33;1.02;;;14.50;91.50;;;;;;4955539;28;20526;-75
2022/04/16 11:41:55;;;;;;;3.00;1.02;;;;;;;;;;4965730;28;20454;-75
2022/04/16 11:44:31;;;;;;;2.13;0.95;;;;;;;;;;5008364;28;20428;-76
2022/04/16 11:46:57;;;;;;;1.73;0.90;;;;;;;;;;5009484;28;20432;-75
2022/04/16 11:49:23;;;;;;;3.58;1.00;;;14.50;85.50;;;;;;4998569;28;20533;-75
2022/04/16 11:51:50;;;;;;;2.95;0.85;;;14.50;86.10;;;;;;4995757;28;20996;-75
2022/04/16 11:54:29;;;;;;;1.60;0.80;;;14.40;80.40;;;;;;4970729;28;20426;-76
2022/04/16 11:56:55;;;;;;;1.15;0.60;;;;;;;;;;4949355;28;20434;-75
2022/04/16 11:59:28;;;;;;;2.15;0.70;;;;;;;;;;4995215;28;20813;-76
2022/04/16 12:01:58;;;;;;;2.25;0.90;;;;;;;;;;4946545;28;20422;-75
2022/04/16 12:04:43;;;;;;;2.35;1.00;;;14.70;85.60;;;;;;5019694;28;20429;-76
2022/04/16 12:07:20;;;;;;;2.65;1.27;;;;;;;;;;5001848;28;20448;-76
2022/04/16 12:09:47;;;;;;;1.95;0.90;;;14.80;83.70;;;;;;4931344;28;20437;-76
2022/04/16 12:12:17;;;;;;;2.90;1.00;;;14.90;83.80;;;;;;5011674;28;20458;-76
2022/04/16 12:14:51;;;;;;;1.45;0.90;;;14.70;84.20;;;;;;5002870;28;20425;-77
2022/04/16 12:17:38;;;;;;;2.90;1.35;;;;;;;;;;4999334;28;20434;-77
2022/04/16 12:20:10;;;;;;;2.90;1.10;;;14.50;85.00;;;;;;5005788;28;20463;-76
2022/04/16 12:22:49;;;;;;;3.43;1.07;;;14.80;84.30;;;;;;5021168;28;20777;-77
2022/04/16 12:25:20;;;;;;;3.40;1.00;;;15.10;85.20;;;;;;5016517;28;20438;-77
2022/04/16 12:27:52;;;;;;;1.80;1.08;;;15.10;85.80;;;;;;4955817;28;20460;-76
2022/04/16 12:30:20;;;;;;;2.08;0.90;;;15.20;82.60;;;;;;5011635;28;20563;-77
2022/04/16 12:33:00;;;;;;;3.10;1.07;;;15.00;82.50;;;;;;5020424;28;20877;-76
2022/04/16 12:35:27;;;;;;;1.53;0.93;;;;;;;;;;5011624;28;20513;-77
2022/04/16 12:37:54;;;;;;;1.63;1.10;;;;;;;;;;4956063;28;20422;-77
2022/04/16 12:40:21;;;;;;;2.47;1.02;;;15.50;84.60;;;;;;5014352;28;20453;-77
2022/04/16 12:42:48;;;;;;;3.17;1.38;;;15.20;85.10;;;;;;4994045;28;20525;-77
2022/04/16 12:45:15;;;;;;;3.80;1.10;;;;;;;;;;4993239;28;20442;-77
2022/04/16 12:47:41;;;;;;;2.80;0.98;;;;;;;;;;5011860;28;20430;-76
2022/04/16 12:50:09;;;;;;;2.37;1.03;;;;;;;;;;5007731;28;20429;-77
2022/04/16 12:52:35;;;;;;;3.10;1.20;;;;;;;;;;4948304;28;20426;-77
2022/04/16 12:55:01;;;;;;;2.55;1.13;;;;;;;;;;4933819;28;22199;-77
2022/04/16 12:57:27;;;;;;;2.38;0.90;;;;;;;;;;5028508;28;20429;-76
2022/04/16 12:59:54;;;;;;;4.32;1.20;;;14.90;83.90;;;;;;5011228;28;20491;-77
2022/04/16 13:02:20;;;;;;;4.00;1.08;;;;;;;;;;5012301;28;20821;-76
2022/04/16 13:04:46;;;;;;;3.03;1.13;;;15.10;83.10;;;;;;5011469;28;20440;-76
2022/04/16 13:07:11;;;;;;;2.40;1.40;;;14.90;83.20;;;;;;4997233;28;20418;-77
2022/04/16 13:09:37;;;;;;;2.00;1.30;;;15.30;80.70;;;;;;4945962;28;20777;-77
2022/04/16 13:12:03;;;;;;;2.20;1.00;;;15.40;83.40;;;;;;4942519;28;20946;-76
2022/04/16 13:14:29;;;;;;;2.15;1.27;;;15.10;82.00;;;;;;5012380;28;20460;-76
2022/04/16 13:16:55;;;;;;;3.83;1.30;;;;;;;;;;5012830;28;20959;-75
2022/04/16 13:19:22;;;;;;;2.17;1.30;;;;;;;;;;4954710;28;20501;-75
2022/04/16 13:21:48;;;;;;;5.35;1.40;;;;;;;;;;4954904;28;20467;-75
2022/04/16 13:24:18;;;;;;;2.17;1.13;;;15.30;84.30;;;;;;4954987;28;20883;-75
2022/04/16 13:26:44;;;;;;;2.58;1.10;;;;;;;;;;4954870;28;20422;-75
2022/04/16 13:29:11;;;;;;;3.08;1.40;;;14.80;84.50;;;;;;5010977;28;20429;-76
2022/04/16 13:31:38;;;;;;;4.32;1.40;;;;;;;;;;5023359;28;20430;-76
2022/04/16 13:34:04;;;;;;;3.28;1.40;;;;;;;;;;5000136;28;20441;-76
2022/04/16 13:36:30;;;;;;;3.25;1.38;;;15.50;83.20;;;;;;4947017;28;20513;-76
2022/04/16 13:38:56;;;;;;;2.90;1.23;;;;;;;;;;5012239;28;20886;-74
2022/04/16 13:41:38;;;;;;;3.67;1.30;;;;;;;;;;5021752;28;20834;-75
2022/04/16 13:44:10;;;;;;;4.03;1.33;;;;;;;;;;4939410;28;20520;-75
2022/04/16 13:46:37;;;;;;;2.70;1.40;;;;;;;;;;5004521;28;20929;-74
2022/04/16 13:49:03;;;;;;;2.97;1.20;;;;;;;;;;4996860;28;20418;-75
2022/04/16 13:51:36;;;;;;;4.75;1.27;;;15.20;84.40;;;;;;4946201;28;20426;-74
2022/04/16 13:54:02;;;;;;;4.20;1.50;;;;;;;;;;4920498;28;20828;-75
2022/04/16 13:56:29;;;;;;;3.43;1.20;;;;;;;;;;4939739;28;21072;-76
2022/04/16 13:58:56;;;;;;;2.70;1.00;;;;;;;;;;4991397;28;20572;-75
2022/04/16 14:01:23;;;;;;;4.28;1.40;;;;;;;;;;4943784;28;20426;-76
2022/04/16 14:03:50;;;;;;;3.78;1.33;;;;;;;;;;4946912;28;20420;-77
2022/04/16 14:06:18;;;;;;;2.47;1.30;;;;;;;;;;4998972;28;20434;-77
2022/04/16 14:08:44;;;;;;;2.28;1.20;;;;;;;;;;5006993;28;20954;-77
2022/04/16 14:11:10;;;;;;;9.52;1.20;;;;;;;;;;4996185;28;20461;-78
2022/04/16 14:13:37;;;;;;;2.40;1.13;;;;;;;;;;5012951;28;20441;-76
2022/04/16 14:16:04;;;;;;;3.08;1.05;;;;;;;;;;5011844;28;20427;-77
2022/04/16 14:18:30;;;;;;;2.58;1.10;;;;;;;;;;4991220;28;20936;-77
2022/04/16 14:20:58;;;;;;;4.70;1.15;;;;;;;;;;4944414;28;20872;-79
2022/04/16 14:23:27;;;;;;;3.60;1.20;;;;;;;;;;5008287;28;20441;-77
2022/04/16 14:25:53;;;;;;;5.38;1.50;;;;;;;;;;4975887;28;20430;-77
2022/04/16 14:28:19;;;;;;;3.35;1.23;;;;;;;;;;5007388;28;20434;-77
2022/04/16 14:30:45;;;;;;;2.37;1.07;;;;;;;;;;4996801;28;20520;-77
2022/04/16 14:33:12;;;;;;;3.15;1.00;;;;;;;;;;4945617;28;20561;-77
2022/04/16 14:35:39;;;;;;;2.97;1.10;;;;;;;;;;4956131;28;20431;-77
2022/04/16 14:38:11;;;;;;;3.08;1.10;;;;;;;;;;4945522;28;20426;-79